Ana Sayfa
METAR-TAF:

METAR-TAF

Havaalanları :

Zonguldak Havalimanı

Zonguldak, Türkiye

Enlem: 41-27N, Boylam: 031-48E, yükseklik: 136 m

Güncel hava durumu gözlemi

Rapor saat 13:50 UTC de 15 saat ve 5 dakika önce yapıldı.
Rüzgar kuzeybatıdan 9 kt
Sıcaklık 28°C
Nem 55%
Basınç 1010 hPa
Görüş mesafesi 10 km veya daha fazla
1500 m altında bulut yok ve kümülonimbus yok

METAR: LTAS 141350Z 32009KT CAVOK 28/18 Q1010

Saat: 07:55 (04:55 UTC)

Tahmin

Rapor saat 01:40 UTC de 3 saat ve 15 dakika önce yapıldı.
Ayın 15'si saat 03 UTC'den ayın 15'si saat 12 UTC'ye kadar geçerli Tahmin
Rüzgar değişken yönden 2 kt
Görüş mesafesi 10 km veya daha fazla
1500 m altında bulut yok ve kümülonimbus yok
Dönüşüyor
ayın 15'si saat 06 UTC'den ayın 15'si saat 09 UTC'ye kadar
4000 ft yükseklikte parçalı bulutlu

TAF: LTAS 150140Z 1503/1512 VRB02KT CAVOK BECMG 1506/1509 SCT040

4.000'den fazla havaalanı için hava durumu gözlemleri ve tahminleri (METAR ve TAF raporları).

Kullanılabilir istasyonlar harita üzerinde sarı ve kırmızı noktalarla gösterilir.

İstasyonun adını görmek için fareyi noktanın üzerinde gezdirin.

Sonrasında hava gözlem ve tahminlerini görmek için tıklayın.

Haritayı değiştirmek için: yaklaştırmak için siyah artı işaretli yeşil düğmeye ve uzaklaştırmak için de eksi işaretli düğmeye hızla tıklayın; bitişik haritalar için yeşil okları kullanın.


METAR-TAF: